Time;durP1;ratioP1;P1;durP2;ratioP2;P2;SDS_P1;SDS_P2;PMS_P1;PMS_P2;Temp;Humidity;BMP_temperature;BMP_pressure;BME280_temperature;BME280_humidity;BME280_pressure;Samples;Min_cycle;Max_cycle;Signal;HPM_P1;HPM_P2
2020/12/31 00:01:26;;;;;;;43.67;29.52;;;;;;;7.02;82.18;99467.16;5095660;28;20024;-75
2020/12/31 00:03:53;;;;;;;9.68;6.97;;;;;;;7.08;82.96;99485.09;5094344;28;20462;-75
2020/12/31 00:06:21;;;;;;;6.75;4.85;;;;;;;7.04;83.02;99478.69;5094265;28;20027;-75
2020/12/31 00:08:47;;;;;;;47.05;30.92;;;;;;;7.15;83.60;99467.91;5093895;28;20063;-75
2020/12/31 00:11:12;;;;;;;44.90;26.15;;;;;;;7.13;82.56;99457.16;5095234;28;20023;-75
2020/12/31 00:13:39;;;;;;;3.35;1.88;;;;;;;7.20;81.08;99471.19;5094745;28;20028;-75
2020/12/31 00:16:05;;;;;;;4.75;2.38;;;;;;;7.12;81.86;99471.34;5077233;28;20028;-75
2020/12/31 00:18:31;;;;;;;3.55;2.00;;;;;;;7.15;82.46;99474.22;5094100;28;20036;-75
2020/12/31 00:20:56;;;;;;;4.68;3.95;;;;;;;7.16;82.26;99484.13;5094145;28;20425;-75
2020/12/31 00:23:22;;;;;;;10.18;6.40;;;;;;;7.07;83.15;99484.28;5093819;28;20038;-75
2020/12/31 00:25:53;;;;;;;10.85;8.02;;;;;;;6.99;84.47;99492.78;5093603;28;20020;-75
2020/12/31 00:28:22;;;;;;;9.07;7.13;;;;;;;6.96;84.56;99485.19;5094756;28;20035;-75
2020/12/31 00:30:50;;;;;;;24.52;16.45;;;;;;;7.00;85.09;99503.47;5095339;28;20020;-75
2020/12/31 00:33:19;;;;;;;12.18;8.65;;;;;;;6.95;85.33;99514.81;5094312;28;20378;-75
2020/12/31 00:35:53;;;;;;;14.98;8.85;;;;;;;6.96;86.60;99494.28;5093954;28;20020;-75
2020/12/31 00:38:19;;;;;;;17.42;11.38;;;;;;;6.92;85.43;99506.41;5094179;28;20032;-75
2020/12/31 00:40:47;;;;;;;7.63;6.78;;;;;;;6.97;85.63;99506.16;5093868;28;20020;-75
2020/12/31 00:43:14;;;;;;;10.50;5.82;;;;;;;7.13;84.57;99506.16;5093553;28;20119;-75
2020/12/31 00:45:42;;;;;;;5.53;3.55;;;;;;;7.09;85.56;99511.63;5093520;28;20028;-75
2020/12/31 00:48:07;;;;;;;8.15;6.45;;;;;;;6.89;85.93;99482.25;5094049;28;20115;-75
2020/12/31 00:50:35;;;;;;;7.47;5.82;;;;;;;6.80;86.35;99508.09;5093475;28;20050;-75
2020/12/31 00:53:04;;;;;;;6.57;5.95;;;;;;;6.83;87.33;99520.41;5093648;28;20024;-75
2020/12/31 00:55:30;;;;;;;8.48;5.43;;;;;;;6.76;88.41;99522.97;5109794;28;20043;-75
2020/12/31 00:57:55;;;;;;;7.85;5.75;;;;;;;6.66;87.62;99520.69;5096905;28;20050;-75
2020/12/31 01:00:23;;;;;;;6.80;5.05;;;;;;;6.56;87.74;99503.50;5096632;28;20024;-75
2020/12/31 01:02:49;;;;;;;7.57;4.75;;;;;;;6.63;88.45;99519.47;5113540;28;20034;-75
2020/12/31 01:05:15;;;;;;;7.63;5.63;;;;;;;6.69;88.67;99515.28;5113803;28;20118;-75
2020/12/31 01:07:40;;;;;;;8.88;5.25;;;;;;;6.78;87.76;99515.94;5096142;28;20024;-75
2020/12/31 01:10:07;;;;;;;6.60;5.85;;;;;;;6.63;87.36;99483.53;5114398;28;20084;-75
2020/12/31 01:12:33;;;;;;;7.10;6.32;;;;;;;6.74;87.32;99506.75;5096141;28;20031;-75
2020/12/31 01:14:59;;;;;;;9.73;5.75;;;;;;;6.68;88.16;99508.16;5096750;28;20194;-75
2020/12/31 01:17:25;;;;;;;7.38;5.75;;;;;;;6.77;88.47;99519.88;5096332;28;20530;-75
2020/12/31 01:19:51;;;;;;;7.72;5.60;;;;;;;6.74;88.84;99512.25;5096736;28;20375;-75
2020/12/31 01:22:19;;;;;;;8.82;6.63;;;;;;;6.89;87.88;99516.22;5114084;28;20039;-75
2020/12/31 01:24:45;;;;;;;8.82;6.05;;;;;;;6.71;86.55;99515.75;5096018;28;20070;-75
2020/12/31 01:27:12;;;;;;;8.40;5.68;;;;;;;6.56;86.98;99522.84;5096206;28;20032;-75
2020/12/31 01:29:37;;;;;;;7.97;5.70;;;;;;;6.56;87.79;99524.81;5096323;28;20044;-75
2020/12/31 01:32:03;;;;;;;15.30;10.27;;;;;;;6.51;87.70;99519.53;5096212;28;20141;-75
2020/12/31 01:34:28;;;;;;;14.60;9.25;;;;;;;6.53;88.43;99522.72;5096166;28;20024;-75
2020/12/31 01:36:54;;;;;;;10.27;8.77;;;;;;;6.60;88.53;99509.09;5112817;28;20039;-75
2020/12/31 01:39:23;;;;;;;12.30;8.98;;;;;;;6.62;88.97;99514.28;5114177;28;20019;-75
2020/12/31 01:41:49;;;;;;;10.75;8.85;;;;;;;6.65;89.37;99508.84;5096203;28;20034;-75
2020/12/31 01:44:15;;;;;;;8.85;7.93;;;;;;;6.59;88.51;99498.41;5096176;28;20028;-75
2020/12/31 01:46:46;;;;;;;12.65;9.05;;;;;;;6.43;88.25;99479.00;5079213;28;20105;-75
2020/12/31 01:49:19;;;;;;;19.90;11.88;;;;;;;6.50;88.93;99506.88;5096132;28;20024;-75
2020/12/31 01:51:49;;;;;;;14.48;11.55;;;;;;;6.40;88.36;99521.19;5096617;28;20028;-75
2020/12/31 01:54:18;;;;;;;15.25;10.50;;;;;;;6.45;89.39;99529.22;5108892;28;20055;-75
2020/12/31 01:56:47;;;;;;;13.98;11.82;;;;;;;6.44;89.14;99528.41;5093530;28;20031;-75
2020/12/31 01:59:14;;;;;;;11.82;10.23;;;;;;;6.36;88.58;99526.59;5093493;28;20033;-75
2020/12/31 02:01:40;;;;;;;12.13;9.65;;;;;;;6.37;88.94;99527.41;5093682;28;20077;-75
2020/12/31 02:04:05;;;;;;;14.43;9.43;;;;;;;6.41;89.04;99522.78;5092300;28;20032;-75
2020/12/31 02:06:33;;;;;;;15.20;9.88;;;;;;;6.27;89.32;99484.47;5092660;28;20024;-75
2020/12/31 02:08:58;;;;;;;11.75;9.32;;;;;;;6.44;88.94;99516.53;5093873;28;20228;-75
2020/12/31 02:11:24;;;;;;;11.80;9.55;;;;;;;6.47;89.65;99515.84;5109599;28;20058;-75
2020/12/31 02:13:51;;;;;;;15.80;10.35;;;;;;;6.58;89.76;99525.25;5091858;28;20028;-75
2020/12/31 02:16:20;;;;;;;9.95;8.88;;;;;;;6.52;89.22;99524.69;5092767;28;20565;-75
2020/12/31 02:18:50;;;;;;;11.13;9.43;;;;;;;6.21;88.82;99483.94;5091918;28;20066;-75
2020/12/31 02:21:21;;;;;;;11.90;9.70;;;;;;;6.53;88.87;99531.81;5092233;28;20036;-75
2020/12/31 02:23:47;;;;;;;10.70;9.63;;;;;;;6.62;88.82;99523.38;5092743;28;20370;-75
2020/12/31 02:26:16;;;;;;;9.85;8.82;;;;;;;6.58;88.40;99522.47;5092885;28;20043;-75
2020/12/31 02:28:44;;;;;;;9.57;8.02;;;;;;;6.52;88.43;99521.13;5092497;28;20020;-75
2020/12/31 02:31:10;;;;;;;8.98;7.93;;;;;;;6.56;87.64;99510.97;5092408;28;20055;-75
2020/12/31 02:33:36;;;;;;;8.27;7.38;;;;;;;6.43;86.96;99512.97;5092049;28;20071;-75
2020/12/31 02:36:01;;;;;;;7.70;6.07;;;;;;;6.35;87.56;99497.38;5091957;28;20024;-75
2020/12/31 02:38:27;;;;;;;6.70;5.95;;;;;;;6.38;87.94;99495.84;5092010;28;20039;-75
2020/12/31 02:40:52;;;;;;;7.95;6.50;;;;;;;6.38;87.92;99506.91;5092014;28;20025;-75
2020/12/31 02:43:18;;;;;;;7.65;6.68;;;;;;;6.30;87.76;99494.84;5092154;28;20036;-75
2020/12/31 02:45:43;;;;;;;8.43;6.75;;;;;;;6.11;87.80;99475.34;5092024;28;20499;-75
2020/12/31 02:48:10;;;;;;;9.23;7.53;;;;;;;6.27;88.25;99501.06;5091881;28;20536;-75
2020/12/31 02:50:38;;;;;;;10.40;6.50;;;;;;;6.23;88.54;99506.50;5092737;28;20478;-75
2020/12/31 02:53:04;;;;;;;10.52;6.25;;;;;;;6.21;88.14;99496.94;5091875;28;20028;-75
2020/12/31 02:55:32;;;;;;;8.55;6.53;;;;;;;6.24;88.34;99508.09;5092040;28;20054;-76
2020/12/31 02:57:57;;;;;;;5.25;4.75;;;;;;;6.22;88.17;99496.59;5095233;28;20017;-76
2020/12/31 03:00:23;;;;;;;5.65;4.75;;;;;;;6.26;88.39;99510.50;5095515;28;20035;-76
2020/12/31 03:02:48;;;;;;;5.35;4.25;;;;;;;6.22;87.32;99513.16;5095117;28;20374;-76
2020/12/31 03:05:14;;;;;;;6.80;5.93;;;;;;;6.19;87.04;99505.59;5096767;28;20081;-75
2020/12/31 03:07:39;;;;;;;19.92;12.07;;;;;;;6.19;87.08;99504.78;5095037;28;20480;-75
2020/12/31 03:10:05;;;;;;;16.35;9.73;;;;;;;6.23;87.21;99509.25;5095348;28;20067;-75
2020/12/31 03:12:30;;;;;;;5.72;4.07;;;;;;;6.29;86.49;99488.53;5095892;28;20405;-75
2020/12/31 03:14:56;;;;;;;4.05;3.65;;;;;;;6.36;85.77;99498.16;5096287;28;20115;-75
2020/12/31 03:17:21;;;;;;;3.25;2.75;;;;;;;6.17;86.54;99477.50;5095721;28;20032;-75
2020/12/31 03:19:49;;;;;;;5.70;3.25;;;;;;;6.27;86.17;99499.09;5095191;28;20130;-75
2020/12/31 03:22:14;;;;;;;3.95;2.97;;;;;;;6.31;86.44;99496.44;5095689;28;20111;-75
2020/12/31 03:24:42;;;;;;;5.30;3.15;;;;;;;6.40;86.58;99515.66;5095022;28;20169;-75
2020/12/31 03:27:10;;;;;;;5.53;2.50;;;;;;;6.39;85.84;99508.50;5095295;28;20020;-75
2020/12/31 03:29:36;;;;;;;3.63;3.00;;;;;;;6.37;85.97;99502.53;5094984;28;20028;-75
2020/12/31 03:32:01;;;;;;;3.20;2.58;;;;;;;6.36;85.61;99501.72;5095517;28;20035;-76
2020/12/31 03:34:27;;;;;;;3.42;2.83;;;;;;;6.16;85.83;99464.84;5094918;28;20359;-76
2020/12/31 03:36:52;;;;;;;5.45;3.92;;;;;;;6.28;86.41;99486.09;5096416;28;20066;-75
2020/12/31 03:39:18;;;;;;;5.00;2.85;;;;;;;6.29;86.35;99483.00;5094415;28;20401;-76
2020/12/31 03:41:43;;;;;;;3.05;2.83;;;;;;;6.15;86.52;99459.69;5094770;28;20024;-75
2020/12/31 03:44:08;;;;;;;4.70;3.40;;;;;;;6.25;85.41;99487.59;5094947;28;20028;-75
2020/12/31 03:46:34;;;;;;;3.10;2.80;;;;;;;6.28;84.94;99473.09;5094699;28;20504;-75
2020/12/31 03:48:59;;;;;;;3.83;3.42;;;;;;;6.32;85.03;99486.19;5094911;28;20028;-76
2020/12/31 03:51:27;;;;;;;13.07;7.43;;;;;;;6.32;85.88;99481.47;5094045;28;20428;-75
2020/12/31 03:53:52;;;;;;;4.43;3.78;;;;;;;6.29;85.30;99487.72;5095918;28;20032;-75
2020/12/31 03:56:18;;;;;;;2.35;2.15;;;;;;;6.25;85.17;99493.13;5097940;28;20020;-76
2020/12/31 03:58:44;;;;;;;3.85;2.90;;;;;;;6.19;84.95;99472.44;5114344;28;20047;-76
2020/12/31 04:01:09;;;;;;;4.63;3.40;;;;;;;6.33;84.90;99501.63;5097449;28;20060;-75
2020/12/31 04:03:35;;;;;;;9.52;7.63;;;;;;;6.44;85.46;99505.47;5097346;28;20567;-75
2020/12/31 04:06:02;;;;;;;36.05;23.77;;;;;;;6.45;85.11;99485.81;5114368;28;20062;-75
2020/12/31 04:08:28;;;;;;;14.40;9.82;;;;;;;6.52;84.83;99496.25;5096454;28;20335;-74
2020/12/31 04:10:56;;;;;;;7.13;5.65;;;;;;;6.47;85.33;99489.00;5115903;28;20045;-75
2020/12/31 04:13:25;;;;;;;3.65;2.65;;;;;;;6.55;82.90;99484.47;5097488;28;20031;-75
2020/12/31 04:15:53;;;;;;;5.55;4.88;;;;;;;6.61;84.16;99485.84;5114430;28;20028;-75
2020/12/31 04:18:19;;;;;;;3.78;3.35;;;;;;;6.33;85.02;99465.69;5097560;28;20447;-75
2020/12/31 04:20:45;;;;;;;7.30;2.40;;;;;;;6.35;84.73;99491.03;5114693;28;20122;-75
2020/12/31 04:23:16;;;;;;;5.97;2.05;;;;;;;6.52;83.00;99487.97;5115285;28;20027;-73
2020/12/31 04:25:41;;;;;;;2.42;2.22;;;;;;;6.34;83.00;99492.16;5097182;28;20019;-75
2020/12/31 04:28:12;;;;;;;3.70;2.63;;;;;;;6.30;83.99;99487.38;5097235;28;20035;-76
2020/12/31 04:30:37;;;;;;;3.58;2.65;;;;;;;6.17;84.91;99518.13;5097134;28;20080;-74
2020/12/31 04:33:03;;;;;;;3.45;2.72;;;;;;;6.24;84.56;99510.88;5114736;28;20070;-74
2020/12/31 04:35:30;;;;;;;4.57;3.30;;;;;;;6.15;83.60;99510.19;5097648;28;20027;-74
2020/12/31 04:37:56;;;;;;;3.88;2.58;;;;;;;6.04;83.03;99496.06;5097454;28;20028;-74
2020/12/31 04:40:22;;;;;;;7.28;6.20;;;;;;;6.00;83.72;99497.13;5097306;28;20369;-74
2020/12/31 04:42:51;;;;;;;7.63;5.50;;;;;;;5.97;84.27;99515.19;5096916;28;20027;-73
2020/12/31 04:45:21;;;;;;;5.45;4.25;;;;;;;6.05;84.42;99516.19;5096875;28;20173;-74
2020/12/31 04:48:06;;;;;;;4.57;3.88;;;;;;;5.95;85.33;99506.44;5097457;28;20076;-73
2020/12/31 04:50:34;;;;;;;9.02;5.40;;;;;;;5.93;85.54;99522.56;5097407;28;20019;-74
2020/12/31 04:53:08;;;;;;;11.52;7.75;;;;;;;5.96;84.74;99521.03;5115024;28;20454;-74
2020/12/31 04:55:41;;;;;;;20.08;10.60;;;;;;;5.93;84.08;99513.47;5092943;28;20056;-74
2020/12/31 04:58:12;;;;;;;12.60;7.15;;;;;;;5.98;84.05;99518.75;5094207;28;20111;-74
2020/12/31 05:00:39;;;;;;;3.17;2.65;;;;;;;6.19;81.47;99513.06;5093769;28;20039;-74
2020/12/31 05:03:05;;;;;;;3.55;2.33;;;;;;;6.27;80.94;99529.50;5093235;28;20027;-74
2020/12/31 05:05:32;;;;;;;3.22;2.25;;;;;;;6.18;81.35;99526.09;5093442;28;20363;-74
2020/12/31 05:07:59;;;;;;;3.35;2.55;;;;;;;6.30;82.02;99533.53;5093374;28;20032;-74
2020/12/31 05:10:27;;;;;;;4.00;2.75;;;;;;;6.30;82.63;99537.09;5093333;28;20032;-73
2020/12/31 05:13:06;;;;;;;5.78;2.85;;;;;;;6.14;83.54;99533.44;5094352;28;20107;-74
2020/12/31 05:15:40;;;;;;;8.77;2.42;;;;;;;6.17;82.91;99541.03;5093833;28;20067;-74
2020/12/31 05:18:15;;;;;;;;;;;;;;;6.15;82.58;99539.78;5093008;28;20021;-74
2020/12/31 05:20:46;;;;;;;5.97;2.90;;;;;;;6.12;83.67;99551.50;5092864;28;19912;-74
2020/12/31 05:23:12;;;;;;;3.45;2.58;;;;;;;6.05;84.20;99574.19;5093863;28;20140;-74
2020/12/31 05:25:37;;;;;;;5.28;3.30;;;;;;;6.13;84.47;99584.31;5094043;28;20024;-74
2020/12/31 05:28:20;;;;;;;2.63;1.52;;;;;;;6.24;80.93;99577.16;5093095;28;20035;-74
2020/12/31 05:30:46;;;;;;;1.33;0.60;;;;;;;6.35;80.10;99584.97;5093338;28;20474;-74
2020/12/31 05:33:11;;;;;;;4.40;1.15;;;;;;;6.44;79.75;99578.13;5076111;28;20039;-74
2020/12/31 05:35:37;;;;;;;1.40;1.08;;;;;;;6.33;79.48;99554.13;5092681;28;20036;-74
2020/12/31 05:38:18;;;;;;;6.68;0.85;;;;;;;6.27;79.87;99551.59;5092647;28;20031;-74
2020/12/31 05:40:58;;;;;;;0.70;0.70;;;;;;;6.23;80.90;99550.72;5093237;28;20024;-74
2020/12/31 05:43:23;;;;;;;3.85;1.30;;;;;;;6.29;81.92;99548.50;5093968;28;20039;-76
2020/12/31 05:46:08;;;;;;;6.65;3.25;;;;;;;6.55;80.16;99553.56;5093155;28;20023;-75
2020/12/31 05:48:34;;;;;;;4.47;2.80;;;;;;;6.47;80.39;99554.53;5092585;28;20028;-75
2020/12/31 05:51:19;;;;;;;1.63;1.25;;;;;;;6.24;81.31;99557.03;5094111;28;20028;-75
2020/12/31 05:53:47;;;;;;;4.50;0.90;;;;;;;6.13;80.31;99544.84;5093392;28;20036;-75
2020/12/31 05:56:15;;;;;;;3.60;0.90;;;;;;;6.21;80.59;99564.03;5114699;28;20508;-75
2020/12/31 05:58:45;;;;;;;4.68;2.28;;;;;;;6.16;80.91;99582.81;5114175;28;20031;-75
2020/12/31 06:01:14;;;;;;;5.32;4.20;;;;;;;5.91;82.42;99570.94;5114396;28;20036;-74
2020/12/31 06:03:52;;;;;;;8.18;4.13;;;;;;;6.01;83.24;99609.97;5113986;28;20053;-74
2020/12/31 06:06:20;;;;;;;7.13;5.00;;;;;;;6.05;83.58;99604.59;5096634;28;20046;-74
2020/12/31 06:09:05;;;;;;;7.25;3.75;;;;;;;6.00;84.17;99607.56;5095979;28;20110;-74
2020/12/31 06:11:35;;;;;;;5.10;3.63;;;;;;;5.81;84.15;99582.50;5112679;28;20478;-74
2020/12/31 06:14:04;;;;;;;3.75;2.60;;;;;;;5.95;83.70;99616.09;5113659;28;20020;-74
2020/12/31 06:16:37;;;;;;;5.15;2.60;;;;;;;5.94;83.96;99620.00;5095700;28;20036;-76
2020/12/31 06:19:28;;;;;;;4.75;2.78;;;;;;;5.98;83.85;99626.47;5113608;28;20023;-76
2020/12/31 06:22:13;;;;;;;6.55;3.58;;;;;;;6.07;83.22;99635.41;5095631;28;20047;-74
2020/12/31 06:24:47;;;;;;;8.35;4.75;;;;;;;6.11;83.43;99632.78;5095031;28;20055;-73
2020/12/31 06:27:17;;;;;;;7.47;4.22;;;;;;;6.10;83.86;99640.25;5096131;28;20031;-76
2020/12/31 06:29:48;;;;;;;6.00;3.05;;;;;;;5.96;83.48;99617.69;5095168;28;20028;-76
2020/12/31 06:32:28;;;;;;;7.28;3.22;;;;;;;6.07;83.93;99646.47;5099844;28;20108;-74
2020/12/31 06:35:04;;;;;;;4.13;2.13;;;;;;;6.12;83.23;99649.00;5099760;28;20020;-74
2020/12/31 06:37:30;;;;;;;3.65;2.13;;;;;;;6.15;82.20;99651.06;5099824;28;20414;-74
2020/12/31 06:40:28;;;;;;;3.10;2.13;;;;;;;6.08;82.71;99641.75;5099601;28;20595;-74
2020/12/31 06:43:09;;;;;;;3.10;1.88;;;;;;;5.95;82.94;99649.22;5100104;28;20024;-76
2020/12/31 06:45:39;;;;;;;5.18;3.80;;;;;;;5.87;83.56;99658.41;5099976;28;20369;-74
2020/12/31 06:48:26;;;;;;;7.88;4.13;;;;;;;5.85;84.15;99655.16;5099464;28;20374;-74
2020/12/31 06:51:08;;;;;;;15.38;4.72;;;;;;;5.72;84.25;99657.94;5099377;28;20077;-74
2020/12/31 06:53:43;;;;;;;4.95;3.70;;;;;;;5.73;85.12;99659.53;5099300;28;20377;-75
2020/12/31 06:56:10;;;;;;;13.85;9.57;;;;;;;5.77;84.31;99665.97;5098897;28;20059;-74
2020/12/31 06:58:37;;;;;;;17.15;10.32;;;;;;;5.76;84.49;99664.38;5099357;28;20027;-74
2020/12/31 07:01:26;;;;;;;13.70;10.38;;;;;;;5.93;84.81;99679.16;5117492;28;20062;-74
2020/12/31 07:03:55;;;;;;;14.95;9.95;;;;;;;5.95;85.23;99680.41;5116345;28;20030;-74
2020/12/31 07:06:21;;;;;;;18.25;10.25;;;;;;;5.82;85.18;99650.34;5099357;28;20028;-75
2020/12/31 07:09:00;;;;;;;14.10;9.95;;;;;;;6.17;84.82;99690.19;5098656;28;20485;-74
2020/12/31 07:11:37;;;;;;;13.05;7.90;;;;;;;6.34;83.48;99693.88;5098665;28;20030;-75
2020/12/31 07:14:10;;;;;;;11.75;7.57;;;;;;;6.35;82.12;99685.25;5099136;28;20366;-74
2020/12/31 07:17:09;;;;;;;7.78;5.28;;;;;;;6.29;83.14;99701.25;5116768;28;20032;-75
2020/12/31 07:19:45;;;;;;;8.65;5.18;;;;;;;6.15;82.89;99683.41;5101131;28;20405;-74
2020/12/31 07:22:10;;;;;;;9.48;6.50;;;;;;;6.33;84.59;99714.38;5098737;28;20457;-75
2020/12/31 07:25:17;;;;;;;8.35;6.32;;;;;;;6.39;84.51;99719.34;5098942;28;20031;-74
2020/12/31 07:27:48;;;;;;;9.15;7.38;;;;;;;6.55;84.79;99727.72;5095420;28;20050;-74
2020/12/31 07:30:21;;;;;;;10.93;7.53;;;;;;;6.69;84.17;99722.63;5098298;28;20404;-74
2020/12/31 07:32:53;;;;;;;28.65;18.80;;;;;;;6.79;82.69;99722.16;5116025;28;20114;-74
2020/12/31 07:35:35;;;;;;;26.23;15.60;;;;;;;7.88;80.99;99733.97;5098306;28;20041;-75
2020/12/31 07:38:10;;;;;;;19.58;11.60;;;;;;;8.33;77.71;99741.03;5116325;28;20102;-74
2020/12/31 07:40:36;;;;;;;13.55;9.27;;;;;;;8.27;76.73;99744.44;5097938;28;20420;-76
2020/12/31 07:43:04;;;;;;;10.65;7.20;;;;;;;8.12;77.16;99752.38;5115640;28;20027;-73
2020/12/31 07:45:31;;;;;;;11.48;6.18;;;;;;;7.96;77.28;99759.88;5116016;28;20047;-75
2020/12/31 07:47:57;;;;;;;9.70;6.63;;;;;;;7.95;77.90;99765.78;5115736;28;20118;-75
2020/12/31 07:50:23;;;;;;;9.98;7.95;;;;;;;7.72;76.90;99758.03;5098069;28;20093;-75
2020/12/31 07:52:49;;;;;;;11.70;6.53;;;;;;;7.77;77.36;99776.34;5115867;28;20481;-74
2020/12/31 07:55:18;;;;;;;8.15;6.45;;;;;;;7.53;77.77;99763.44;5094190;28;20051;-74
2020/12/31 07:57:43;;;;;;;9.00;6.07;;;;;;;7.50;77.05;99766.91;5096176;28;20027;-74
2020/12/31 08:00:22;;;;;;;7.03;5.10;;;;;;;7.47;78.78;99767.63;5094122;28;20032;-74
2020/12/31 08:02:51;;;;;;;8.43;5.88;;;;;;;7.65;78.83;99774.44;5094784;28;20028;-74
2020/12/31 08:05:21;;;;;;;11.38;5.90;;;;;;;8.14;78.31;99765.88;5095483;28;20036;-75
2020/12/31 08:07:55;;;;;;;21.17;12.32;;;;;;;8.37;77.31;99782.72;5094498;28;20386;-74
2020/12/31 08:10:21;;;;;;;18.17;10.30;;;;;;;8.35;76.70;99777.50;5094722;28;20058;-74
2020/12/31 08:12:53;;;;;;;21.27;9.65;;;;;;;8.47;76.72;99795.22;5094862;28;20028;-75
2020/12/31 08:15:23;;;;;;;14.38;9.18;;;;;;;8.54;77.01;99795.44;5095307;28;20109;-75
2020/12/31 08:17:58;;;;;;;18.70;10.60;;;;;;;8.63;77.17;99798.81;5094399;28;20366;-74
2020/12/31 08:20:31;;;;;;;19.63;12.48;;;;;;;8.83;76.82;99805.22;5093856;28;20031;-73
2020/12/31 08:23:00;;;;;;;18.17;12.73;;;;;;;10.20;73.10;99811.28;5095755;28;20059;-74
2020/12/31 08:25:32;;;;;;;15.57;9.52;;;;;;;11.09;67.43;99805.63;5093865;28;20028;-74
2020/12/31 08:28:04;;;;;;;19.27;11.45;;;;;;;10.99;66.11;99793.16;5094018;28;20024;-74
2020/12/31 08:30:31;;;;;;;20.45;10.93;;;;;;;11.64;62.73;99797.59;5093803;28;20024;-75
2020/12/31 08:32:57;;;;;;;21.60;13.70;;;;;;;10.78;65.55;99803.97;5093352;28;20119;-74
2020/12/31 08:35:27;;;;;;;20.63;13.73;;;;;;;11.05;65.80;99816.69;5093261;28;20043;-75
2020/12/31 08:38:12;;;;;;;16.00;8.90;;;;;;;10.39;65.65;99810.47;5095082;28;20016;-75
2020/12/31 08:40:56;;;;;;;11.52;7.47;;;;;;;9.68;66.91;99817.41;5093614;28;20032;-75
2020/12/31 08:43:31;;;;;;;12.60;5.03;;;;;;;9.17;68.91;99814.75;5094175;28;20427;-75
2020/12/31 08:45:57;;;;;;;4.88;3.78;;;;;;;8.97;70.46;99826.97;5093853;28;20027;-75
2020/12/31 08:48:26;;;;;;;6.15;4.30;;;;;;;8.68;72.96;99826.25;5092752;28;20120;-75
2020/12/31 08:51:12;;;;;;;8.73;4.75;;;;;;;8.57;74.10;99817.69;5092683;28;20081;-75
2020/12/31 08:53:51;;;;;;;9.52;5.47;;;;;;;8.45;74.97;99828.06;5093339;28;20035;-76
2020/12/31 08:56:18;;;;;;;7.15;6.00;;;;;;;9.11;73.50;99828.09;5072317;28;20081;-74
2020/12/31 08:58:43;;;;;;;6.53;4.30;;;;;;;9.57;70.53;99822.75;5073312;28;20039;-76
2020/12/31 09:01:24;;;;;;;6.30;4.18;;;;;;;9.77;69.85;99814.44;5073415;28;20021;-75
2020/12/31 09:03:50;;;;;;;7.20;3.65;;;;;;;10.13;68.99;99811.16;5089195;28;20028;-74
2020/12/31 09:06:26;;;;;;;4.70;3.72;;;;;;;10.54;66.67;99813.47;5072238;28;20028;-74
2020/12/31 09:08:52;;;;;;;7.22;4.57;;;;;;;10.74;66.98;99810.25;5071997;28;20072;-74
2020/12/31 09:11:25;;;;;;;7.65;4.60;;;;;;;10.57;66.11;99812.75;5072140;28;20036;-74
2020/12/31 09:13:51;;;;;;;7.35;4.57;;;;;;;10.29;66.13;99813.88;5072757;28;20371;-75
2020/12/31 09:16:16;;;;;;;5.18;3.97;;;;;;;9.69;67.90;99817.06;5072327;28;20031;-74
2020/12/31 09:18:43;;;;;;;6.72;4.40;;;;;;;9.69;69.00;99821.78;5072026;28;20437;-74
2020/12/31 09:21:10;;;;;;;11.45;5.38;;;;;;;9.41;71.64;99824.78;5073573;28;20021;-75
2020/12/31 09:23:36;;;;;;;7.10;5.68;;;;;;;9.89;69.81;99822.59;5072029;28;20036;-73
2020/12/31 09:26:03;;;;;;;6.40;5.50;;;;;;;9.77;70.08;99823.56;5072010;28;20046;-74
2020/12/31 09:28:30;;;;;;;9.18;5.55;;;;;;;9.68;70.01;99815.44;5072414;28;20477;-74
2020/12/31 09:30:56;;;;;;;9.13;6.15;;;;;;;10.21;69.70;99812.09;5072785;28;20024;-74
2020/12/31 09:33:24;;;;;;;9.93;5.95;;;;;;;10.59;68.40;99818.75;5072179;28;20119;-74
2020/12/31 09:35:50;;;;;;;10.07;6.00;;;;;;;10.96;66.39;99825.31;5071921;28;20038;-74
2020/12/31 09:38:19;;;;;;;9.77;7.05;;;;;;;11.65;64.33;99822.31;5072990;28;20394;-74
2020/12/31 09:40:45;;;;;;;12.48;5.35;;;;;;;11.38;63.34;99810.41;5071541;28;20028;-74
2020/12/31 09:43:11;;;;;;;9.57;5.30;;;;;;;11.38;63.61;99817.97;5072281;28;20025;-74
2020/12/31 09:45:38;;;;;;;7.70;6.13;;;;;;;10.73;66.71;99830.13;5072119;28;20417;-74
2020/12/31 09:48:04;;;;;;;8.82;5.80;;;;;;;10.49;67.11;99821.00;5071919;28;20063;-74
2020/12/31 09:50:30;;;;;;;10.35;6.93;;;;;;;10.41;67.82;99824.81;5073202;28;20021;-74
2020/12/31 09:52:56;;;;;;;7.65;5.25;;;;;;;10.30;67.44;99828.56;5072545;28;20371;-74
2020/12/31 09:55:22;;;;;;;7.88;6.35;;;;;;;10.07;69.90;99826.53;5085492;28;20048;-74
2020/12/31 09:57:48;;;;;;;9.20;6.07;;;;;;;9.94;71.51;99830.63;5092057;28;20084;-74
2020/12/31 10:00:13;;;;;;;11.02;6.65;;;;;;;10.06;70.01;99832.44;5091819;28;20050;-74
2020/12/31 10:02:39;;;;;;;9.05;5.03;;;;;;;10.06;70.29;99821.34;5091649;28;20102;-74
2020/12/31 10:05:05;;;;;;;5.35;4.22;;;;;;;10.07;69.33;99820.19;5092502;28;20020;-74
2020/12/31 10:07:31;;;;;;;9.88;6.25;;;;;;;10.65;68.58;99822.81;5096228;28;20024;-75
2020/12/31 10:09:57;;;;;;;9.82;5.15;;;;;;;10.54;68.23;99824.63;5097466;28;20054;-75
2020/12/31 10:12:24;;;;;;;11.18;5.43;;;;;;;10.55;69.10;99827.03;5096429;28;20450;-75
2020/12/31 10:14:50;;;;;;;6.93;4.15;;;;;;;10.69;69.17;99837.59;5096087;28;20062;-75
2020/12/31 10:17:16;;;;;;;2.97;2.67;;;;;;;11.53;65.71;99828.13;5096312;28;20056;-75
2020/12/31 10:19:42;;;;;;;2.67;2.03;;;;;;;11.98;63.06;99837.47;5095723;28;20477;-75
2020/12/31 10:22:08;;;;;;;3.80;1.60;;;;;;;12.60;59.86;99834.91;5096012;28;20031;-75
2020/12/31 10:24:35;;;;;;;2.75;1.63;;;;;;;13.07;57.59;99827.72;5097182;28;20028;-75
2020/12/31 10:27:00;;;;;;;5.60;1.75;;;;;;;13.33;57.42;99824.72;5096997;28;20035;-75
2020/12/31 10:29:26;;;;;;;3.17;2.10;;;;;;;13.58;57.14;99836.06;5096715;28;20036;-75
2020/12/31 10:31:56;;;;;;;2.30;1.60;;;;;;;13.78;55.46;99822.53;5095395;28;20024;-75
2020/12/31 10:34:23;;;;;;;5.32;2.03;;;;;;;14.08;53.42;99821.47;5095433;28;20024;-75
2020/12/31 10:36:57;;;;;;;9.25;2.53;;;;;;;13.97;53.07;99824.22;5096143;28;20028;-75
2020/12/31 10:39:23;;;;;;;3.85;2.00;;;;;;;14.10;51.54;99827.44;5095271;28;20107;-74
2020/12/31 10:41:50;;;;;;;3.03;1.40;;;;;;;14.08;52.79;99825.06;5095790;28;20032;-74
2020/12/31 10:44:16;;;;;;;4.03;2.13;;;;;;;14.76;52.15;99824.41;5096799;28;20024;-74
2020/12/31 10:46:45;;;;;;;4.38;3.05;;;;;;;14.65;52.36;99830.81;5095690;28;20085;-74
2020/12/31 10:49:12;;;;;;;9.00;3.08;;;;;;;15.14;50.93;99831.97;5095127;28;20032;-75
2020/12/31 10:51:39;;;;;;;5.95;3.35;;;;;;;14.70;51.69;99824.00;5095393;28;20085;-75
2020/12/31 10:54:05;;;;;;;3.90;2.45;;;;;;;14.41;52.22;99825.94;5099840;28;20059;-75
2020/12/31 10:56:31;;;;;;;3.42;1.98;;;;;;;14.75;51.01;99822.78;5115385;28;20035;-75
2020/12/31 10:58:57;;;;;;;5.63;3.97;;;;;;;14.92;50.50;99817.19;5116334;28;20028;-74
2020/12/31 11:01:25;;;;;;;2.85;2.13;;;;;;;14.71;49.29;99816.41;5098304;28;20062;-74
2020/12/31 11:03:57;;;;;;;6.10;3.20;;;;;;;15.05;48.55;99814.78;5098354;28;20123;-76
2020/12/31 11:06:26;;;;;;;2.80;2.13;;;;;;;14.93;48.32;99803.97;5098363;28;20023;-74
2020/12/31 11:08:54;;;;;;;4.47;2.60;;;;;;;14.14;49.68;99806.69;5116166;28;20024;-74
2020/12/31 11:11:25;;;;;;;7.53;3.65;;;;;;;14.60;49.70;99808.78;5115807;28;20481;-74
2020/12/31 11:13:52;;;;;;;3.53;2.83;;;;;;;14.60;48.67;99789.19;5098207;28;20024;-76
2020/12/31 11:16:21;;;;;;;3.20;2.88;;;;;;;15.37;47.33;99816.72;5097788;28;20023;-74
2020/12/31 11:18:47;;;;;;;6.63;3.72;;;;;;;15.30;44.82;99809.13;5097786;28;20035;-74
2020/12/31 11:21:14;;;;;;;5.93;4.25;;;;;;;15.09;45.91;99811.97;5116335;28;20027;-74
2020/12/31 11:23:43;;;;;;;7.50;5.20;;;;;;;14.40;46.21;99813.13;5081487;28;20062;-74
2020/12/31 11:26:10;;;;;;;5.82;3.92;;;;;;;14.39;46.91;99808.75;5115554;28;20543;-77
2020/12/31 11:28:38;;;;;;;6.18;2.67;;;;;;;14.83;46.57;99802.78;5097866;28;20039;-74
2020/12/31 11:31:05;;;;;;;6.18;4.70;;;;;;;14.67;47.39;99806.00;5114558;28;20180;-76
2020/12/31 11:33:31;;;;;;;5.72;3.97;;;;;;;14.52;46.02;99800.78;5097315;28;20046;-74
2020/12/31 11:35:56;;;;;;;5.63;2.85;;;;;;;14.00;41.60;99787.06;5097722;28;20031;-75
2020/12/31 11:38:22;;;;;;;2.22;1.50;;;;;;;14.40;39.99;99796.34;5098693;28;20030;-75
2020/12/31 11:40:56;;;;;;;7.35;6.22;;;;;;;13.72;41.04;99795.38;5098826;28;20031;-76
2020/12/31 11:43:24;;;;;;;3.58;2.58;;;;;;;13.47;42.94;99801.63;5097245;28;20031;-78
2020/12/31 11:45:52;;;;;;;2.72;2.00;;;;;;;13.53;43.70;99802.88;5097059;28;20427;-77